sensor_id;sensor_type;location;lat;lon;timestamp;temperature;humidity
29431;DHT22;16404;49.902;10.074;2024-03-02T00:01:35;9.90;58.50
29431;DHT22;16404;49.902;10.074;2024-03-02T00:04:20;10.00;58.60
29431;DHT22;16404;49.902;10.074;2024-03-02T00:07:04;10.10;58.40
29431;DHT22;16404;49.902;10.074;2024-03-02T00:09:53;10.00;58.20
29431;DHT22;16404;49.902;10.074;2024-03-02T00:12:39;10.00;58.70
29431;DHT22;16404;49.902;10.074;2024-03-02T00:18:19;10.00;59.00
29431;DHT22;16404;49.902;10.074;2024-03-02T00:21:03;9.90;58.90
29431;DHT22;16404;49.902;10.074;2024-03-02T00:23:49;10.00;58.90
29431;DHT22;16404;49.902;10.074;2024-03-02T00:26:35;9.90;58.90
29431;DHT22;16404;49.902;10.074;2024-03-02T00:29:20;9.90;58.90
29431;DHT22;16404;49.902;10.074;2024-03-02T00:32:12;9.90;58.90
29431;DHT22;16404;49.902;10.074;2024-03-02T00:34:57;9.80;59.00
29431;DHT22;16404;49.902;10.074;2024-03-02T00:37:42;9.80;59.10
29431;DHT22;16404;49.902;10.074;2024-03-02T00:40:28;9.80;59.00
29431;DHT22;16404;49.902;10.074;2024-03-02T00:43:41;9.80;58.90
29431;DHT22;16404;49.902;10.074;2024-03-02T00:46:35;9.80;58.80
29431;DHT22;16404;49.902;10.074;2024-03-02T00:49:24;9.80;58.60
29431;DHT22;16404;49.902;10.074;2024-03-02T00:52:10;9.80;58.50
29431;DHT22;16404;49.902;10.074;2024-03-02T00:54:57;9.80;58.40
29431;DHT22;16404;49.902;10.074;2024-03-02T00:57:41;9.80;58.50
29431;DHT22;16404;49.902;10.074;2024-03-02T01:00:26;9.80;58.60
29431;DHT22;16404;49.902;10.074;2024-03-02T01:03:11;9.80;58.60
29431;DHT22;16404;49.902;10.074;2024-03-02T01:05:56;9.80;58.70
29431;DHT22;16404;49.902;10.074;2024-03-02T01:08:41;9.80;59.20
29431;DHT22;16404;49.902;10.074;2024-03-02T01:11:25;9.80;59.40
29431;DHT22;16404;49.902;10.074;2024-03-02T01:14:10;9.80;59.40
29431;DHT22;16404;49.902;10.074;2024-03-02T01:16:54;9.80;59.40
29431;DHT22;16404;49.902;10.074;2024-03-02T01:19:39;9.80;59.50
29431;DHT22;16404;49.902;10.074;2024-03-02T01:22:25;9.90;59.90
29431;DHT22;16404;49.902;10.074;2024-03-02T01:25:09;9.90;60.20
29431;DHT22;16404;49.902;10.074;2024-03-02T01:27:54;9.90;60.70
29431;DHT22;16404;49.902;10.074;2024-03-02T01:30:38;10.00;61.10
29431;DHT22;16404;49.902;10.074;2024-03-02T01:33:23;10.10;61.30
29431;DHT22;16404;49.902;10.074;2024-03-02T01:36:07;10.10;61.40
29431;DHT22;16404;49.902;10.074;2024-03-02T01:38:52;10.10;61.50
29431;DHT22;16404;49.902;10.074;2024-03-02T01:41:36;10.10;61.90
29431;DHT22;16404;49.902;10.074;2024-03-02T01:44:21;10.10;62.20
29431;DHT22;16404;49.902;10.074;2024-03-02T01:47:06;10.20;62.40
29431;DHT22;16404;49.902;10.074;2024-03-02T01:49:51;10.20;62.40
29431;DHT22;16404;49.902;10.074;2024-03-02T01:52:35;10.20;62.70
29431;DHT22;16404;49.902;10.074;2024-03-02T01:55:20;10.20;62.70
29431;DHT22;16404;49.902;10.074;2024-03-02T01:58:05;10.30;62.80
29431;DHT22;16404;49.902;10.074;2024-03-02T02:00:49;10.30;62.90
29431;DHT22;16404;49.902;10.074;2024-03-02T02:03:34;10.30;63.40
29431;DHT22;16404;49.902;10.074;2024-03-02T02:06:19;10.20;62.70
29431;DHT22;16404;49.902;10.074;2024-03-02T02:09:03;10.20;62.60
29431;DHT22;16404;49.902;10.074;2024-03-02T02:11:48;10.30;62.50
29431;DHT22;16404;49.902;10.074;2024-03-02T02:14:32;10.20;62.40
29431;DHT22;16404;49.902;10.074;2024-03-02T02:17:17;10.30;62.40
29431;DHT22;16404;49.902;10.074;2024-03-02T02:20:02;10.30;62.30
29431;DHT22;16404;49.902;10.074;2024-03-02T02:22:57;10.30;62.30
29431;DHT22;16404;49.902;10.074;2024-03-02T02:25:42;10.30;62.20
29431;DHT22;16404;49.902;10.074;2024-03-02T02:28:26;10.30;62.20
29431;DHT22;16404;49.902;10.074;2024-03-02T02:31:11;10.20;62.10
29431;DHT22;16404;49.902;10.074;2024-03-02T02:33:56;10.30;62.10
29431;DHT22;16404;49.902;10.074;2024-03-02T02:36:40;10.30;62.30
29431;DHT22;16404;49.902;10.074;2024-03-02T02:39:25;10.30;62.40
29431;DHT22;16404;49.902;10.074;2024-03-02T02:42:10;10.30;62.50
29431;DHT22;16404;49.902;10.074;2024-03-02T02:44:55;10.30;62.70
29431;DHT22;16404;49.902;10.074;2024-03-02T02:47:40;10.30;62.80
29431;DHT22;16404;49.902;10.074;2024-03-02T02:50:25;10.30;62.90
29431;DHT22;16404;49.902;10.074;2024-03-02T02:53:09;10.30;63.00
29431;DHT22;16404;49.902;10.074;2024-03-02T02:55:54;10.30;62.90
29431;DHT22;16404;49.902;10.074;2024-03-02T02:58:40;10.30;62.80
29431;DHT22;16404;49.902;10.074;2024-03-02T03:01:25;10.30;62.90
29431;DHT22;16404;49.902;10.074;2024-03-02T03:04:10;10.30;62.90
29431;DHT22;16404;49.902;10.074;2024-03-02T03:06:54;10.30;63.00
29431;DHT22;16404;49.902;10.074;2024-03-02T03:09:39;10.30;62.80
29431;DHT22;16404;49.902;10.074;2024-03-02T03:12:23;10.30;62.50
29431;DHT22;16404;49.902;10.074;2024-03-02T03:15:09;10.30;62.50
29431;DHT22;16404;49.902;10.074;2024-03-02T03:17:53;10.30;62.60
29431;DHT22;16404;49.902;10.074;2024-03-02T03:20:38;10.30;62.60
29431;DHT22;16404;49.902;10.074;2024-03-02T03:23:22;10.30;62.60
29431;DHT22;16404;49.902;10.074;2024-03-02T03:26:07;10.30;62.50
29431;DHT22;16404;49.902;10.074;2024-03-02T03:28:51;10.30;62.50
29431;DHT22;16404;49.902;10.074;2024-03-02T03:31:36;10.30;62.50
29431;DHT22;16404;49.902;10.074;2024-03-02T03:34:20;10.30;62.70
29431;DHT22;16404;49.902;10.074;2024-03-02T03:37:05;10.20;62.80
29431;DHT22;16404;49.902;10.074;2024-03-02T03:39:50;10.20;63.10
29431;DHT22;16404;49.902;10.074;2024-03-02T03:42:34;10.20;63.00
29431;DHT22;16404;49.902;10.074;2024-03-02T03:45:19;10.20;62.90
29431;DHT22;16404;49.902;10.074;2024-03-02T03:48:04;10.20;62.80
29431;DHT22;16404;49.902;10.074;2024-03-02T03:50:48;10.20;62.60
29431;DHT22;16404;49.902;10.074;2024-03-02T03:53:33;10.10;62.20
29431;DHT22;16404;49.902;10.074;2024-03-02T03:56:17;10.10;62.20
29431;DHT22;16404;49.902;10.074;2024-03-02T03:59:02;10.10;62.10
29431;DHT22;16404;49.902;10.074;2024-03-02T04:01:46;10.00;61.90
29431;DHT22;16404;49.902;10.074;2024-03-02T04:04:31;10.00;62.00
29431;DHT22;16404;49.902;10.074;2024-03-02T04:07:15;10.00;62.00
29431;DHT22;16404;49.902;10.074;2024-03-02T04:10:00;10.00;62.10
29431;DHT22;16404;49.902;10.074;2024-03-02T04:12:44;9.90;62.30
29431;DHT22;16404;49.902;10.074;2024-03-02T04:15:29;9.90;62.30
29431;DHT22;16404;49.902;10.074;2024-03-02T04:18:14;9.80;62.30
29431;DHT22;16404;49.902;10.074;2024-03-02T04:20:58;9.80;62.50
29431;DHT22;16404;49.902;10.074;2024-03-02T04:23:43;9.80;62.60
29431;DHT22;16404;49.902;10.074;2024-03-02T04:26:28;9.80;62.70
29431;DHT22;16404;49.902;10.074;2024-03-02T04:29:12;9.80;62.70
29431;DHT22;16404;49.902;10.074;2024-03-02T04:31:57;9.80;62.70
29431;DHT22;16404;49.902;10.074;2024-03-02T04:34:42;9.70;62.50
29431;DHT22;16404;49.902;10.074;2024-03-02T04:37:26;9.70;62.40
29431;DHT22;16404;49.902;10.074;2024-03-02T04:40:11;9.60;62.20
29431;DHT22;16404;49.902;10.074;2024-03-02T04:42:55;9.50;62.00
29431;DHT22;16404;49.902;10.074;2024-03-02T04:45:40;9.40;61.80
29431;DHT22;16404;49.902;10.074;2024-03-02T04:48:24;9.40;61.60
29431;DHT22;16404;49.902;10.074;2024-03-02T04:51:09;9.40;61.20
29431;DHT22;16404;49.902;10.074;2024-03-02T04:53:54;9.40;60.90
29431;DHT22;16404;49.902;10.074;2024-03-02T04:56:38;9.30;60.80
29431;DHT22;16404;49.902;10.074;2024-03-02T04:59:33;9.30;60.90
29431;DHT22;16404;49.902;10.074;2024-03-02T05:02:18;9.20;61.00
29431;DHT22;16404;49.902;10.074;2024-03-02T05:05:02;9.10;61.20
29431;DHT22;16404;49.902;10.074;2024-03-02T05:07:46;9.10;61.50
29431;DHT22;16404;49.902;10.074;2024-03-02T05:10:31;9.10;61.60
29431;DHT22;16404;49.902;10.074;2024-03-02T05:13:15;9.00;61.60
29431;DHT22;16404;49.902;10.074;2024-03-02T05:16:01;9.00;61.50
29431;DHT22;16404;49.902;10.074;2024-03-02T05:18:46;9.00;61.30
29431;DHT22;16404;49.902;10.074;2024-03-02T05:21:30;8.90;61.10
29431;DHT22;16404;49.902;10.074;2024-03-02T05:24:15;8.90;61.00
29431;DHT22;16404;49.902;10.074;2024-03-02T05:27:00;8.80;60.90
29431;DHT22;16404;49.902;10.074;2024-03-02T05:29:44;8.80;60.80
29431;DHT22;16404;49.902;10.074;2024-03-02T05:32:29;8.80;60.60
29431;DHT22;16404;49.902;10.074;2024-03-02T05:35:13;8.70;60.80
29431;DHT22;16404;49.902;10.074;2024-03-02T05:37:58;8.70;61.10
29431;DHT22;16404;49.902;10.074;2024-03-02T05:40:43;8.60;60.90
29431;DHT22;16404;49.902;10.074;2024-03-02T05:43:27;8.50;60.80
29431;DHT22;16404;49.902;10.074;2024-03-02T05:46:12;8.40;60.70
29431;DHT22;16404;49.902;10.074;2024-03-02T05:48:57;8.40;60.70
29431;DHT22;16404;49.902;10.074;2024-03-02T05:51:41;8.30;60.40
29431;DHT22;16404;49.902;10.074;2024-03-02T05:54:26;8.30;60.50
29431;DHT22;16404;49.902;10.074;2024-03-02T05:57:11;8.20;60.50
29431;DHT22;16404;49.902;10.074;2024-03-02T06:00:01;8.10;60.80
29431;DHT22;16404;49.902;10.074;2024-03-02T06:02:45;8.10;61.00
29431;DHT22;16404;49.902;10.074;2024-03-02T06:05:30;8.10;60.90
29431;DHT22;16404;49.902;10.074;2024-03-02T06:08:15;8.10;60.70
29431;DHT22;16404;49.902;10.074;2024-03-02T06:10:59;8.10;60.40
29431;DHT22;16404;49.902;10.074;2024-03-02T06:13:43;8.00;60.20
29431;DHT22;16404;49.902;10.074;2024-03-02T06:16:28;8.00;60.10
29431;DHT22;16404;49.902;10.074;2024-03-02T06:19:12;8.00;59.90
29431;DHT22;16404;49.902;10.074;2024-03-02T06:21:57;7.90;59.70
29431;DHT22;16404;49.902;10.074;2024-03-02T06:24:41;7.90;59.70
29431;DHT22;16404;49.902;10.074;2024-03-02T06:27:26;7.80;59.70
29431;DHT22;16404;49.902;10.074;2024-03-02T06:30:11;7.80;59.80
29431;DHT22;16404;49.902;10.074;2024-03-02T06:32:56;7.80;59.70
29431;DHT22;16404;49.902;10.074;2024-03-02T06:35:40;7.70;59.70
29431;DHT22;16404;49.902;10.074;2024-03-02T06:38:25;7.70;59.60
29431;DHT22;16404;49.902;10.074;2024-03-02T06:41:09;7.70;59.60
29431;DHT22;16404;49.902;10.074;2024-03-02T06:43:54;7.80;59.60
29431;DHT22;16404;49.902;10.074;2024-03-02T06:46:43;7.80;59.60
29431;DHT22;16404;49.902;10.074;2024-03-02T06:49:28;7.80;59.60
29431;DHT22;16404;49.902;10.074;2024-03-02T06:52:12;7.80;59.60
29431;DHT22;16404;49.902;10.074;2024-03-02T06:54:57;7.80;59.90
29431;DHT22;16404;49.902;10.074;2024-03-02T06:57:41;7.80;60.40
29431;DHT22;16404;49.902;10.074;2024-03-02T07:00:26;7.90;61.00
29431;DHT22;16404;49.902;10.074;2024-03-02T07:03:11;8.00;61.70
29431;DHT22;16404;49.902;10.074;2024-03-02T07:05:56;8.00;62.30
29431;DHT22;16404;49.902;10.074;2024-03-02T07:08:41;8.10;62.90
29431;DHT22;16404;49.902;10.074;2024-03-02T07:11:26;8.20;63.10
29431;DHT22;16404;49.902;10.074;2024-03-02T07:14:10;8.30;63.70
29431;DHT22;16404;49.902;10.074;2024-03-02T07:16:56;8.50;64.20
29431;DHT22;16404;49.902;10.074;2024-03-02T07:19:40;8.60;64.70
29431;DHT22;16404;49.902;10.074;2024-03-02T07:22:25;8.70;64.70
29431;DHT22;16404;49.902;10.074;2024-03-02T07:25:09;8.80;65.00
29431;DHT22;16404;49.902;10.074;2024-03-02T07:27:54;9.00;65.20
29431;DHT22;16404;49.902;10.074;2024-03-02T07:30:39;9.10;65.30
29431;DHT22;16404;49.902;10.074;2024-03-02T07:33:24;9.20;65.50
29431;DHT22;16404;49.902;10.074;2024-03-02T07:36:08;9.30;66.00
29431;DHT22;16404;49.902;10.074;2024-03-02T07:38:53;9.40;66.10
29431;DHT22;16404;49.902;10.074;2024-03-02T07:41:38;9.50;66.20
29431;DHT22;16404;49.902;10.074;2024-03-02T07:44:23;9.70;65.80
29431;DHT22;16404;49.902;10.074;2024-03-02T07:47:07;9.80;65.30
29431;DHT22;16404;49.902;10.074;2024-03-02T07:49:52;9.90;65.50
29431;DHT22;16404;49.902;10.074;2024-03-02T07:52:36;10.10;65.50
29431;DHT22;16404;49.902;10.074;2024-03-02T07:55:21;10.20;65.30
29431;DHT22;16404;49.902;10.074;2024-03-02T07:58:06;10.30;65.30
29431;DHT22;16404;49.902;10.074;2024-03-02T08:00:50;10.50;65.30
29431;DHT22;16404;49.902;10.074;2024-03-02T08:03:35;10.70;65.20
29431;DHT22;16404;49.902;10.074;2024-03-02T08:06:20;10.80;65.10
29431;DHT22;16404;49.902;10.074;2024-03-02T08:09:05;10.90;65.10
29431;DHT22;16404;49.902;10.074;2024-03-02T08:11:53;11.10;65.10
29431;DHT22;16404;49.902;10.074;2024-03-02T08:14:38;11.20;64.90
29431;DHT22;16404;49.902;10.074;2024-03-02T08:17:23;11.40;64.90
29431;DHT22;16404;49.902;10.074;2024-03-02T08:20:08;11.60;64.80
29431;DHT22;16404;49.902;10.074;2024-03-02T08:22:53;11.70;64.70
29431;DHT22;16404;49.902;10.074;2024-03-02T08:25:39;11.90;64.30
29431;DHT22;16404;49.902;10.074;2024-03-02T08:28:23;12.10;63.90
29431;DHT22;16404;49.902;10.074;2024-03-02T08:31:08;12.30;63.80
29431;DHT22;16404;49.902;10.074;2024-03-02T08:33:52;12.50;63.70
29431;DHT22;16404;49.902;10.074;2024-03-02T08:36:39;12.80;63.40
29431;DHT22;16404;49.902;10.074;2024-03-02T08:39:23;13.10;63.00
29431;DHT22;16404;49.902;10.074;2024-03-02T08:42:08;13.40;62.40
29431;DHT22;16404;49.902;10.074;2024-03-02T08:44:53;13.70;61.80
29431;DHT22;16404;49.902;10.074;2024-03-02T08:47:38;14.00;61.10
29431;DHT22;16404;49.902;10.074;2024-03-02T08:50:22;14.30;60.70
29431;DHT22;16404;49.902;10.074;2024-03-02T08:53:06;14.50;60.30
29431;DHT22;16404;49.902;10.074;2024-03-02T08:55:51;14.70;59.60
29431;DHT22;16404;49.902;10.074;2024-03-02T08:58:36;14.70;59.40
29431;DHT22;16404;49.902;10.074;2024-03-02T09:01:20;14.80;59.10
29431;DHT22;16404;49.902;10.074;2024-03-02T09:04:05;14.90;58.90
29431;DHT22;16404;49.902;10.074;2024-03-02T09:06:49;14.90;58.80
29431;DHT22;16404;49.902;10.074;2024-03-02T09:09:34;15.00;58.70
29431;DHT22;16404;49.902;10.074;2024-03-02T09:12:19;15.00;58.80
29431;DHT22;16404;49.902;10.074;2024-03-02T09:15:04;15.00;58.90
29431;DHT22;16404;49.902;10.074;2024-03-02T09:17:50;15.10;58.70
29431;DHT22;16404;49.902;10.074;2024-03-02T09:20:34;15.10;58.50
29431;DHT22;16404;49.902;10.074;2024-03-02T09:23:19;15.00;58.40
29431;DHT22;16404;49.902;10.074;2024-03-02T09:26:03;15.00;58.50
29431;DHT22;16404;49.902;10.074;2024-03-02T09:28:48;15.00;58.40
29431;DHT22;16404;49.902;10.074;2024-03-02T09:31:32;15.10;58.10
29431;DHT22;16404;49.902;10.074;2024-03-02T09:34:17;15.10;57.80
29431;DHT22;16404;49.902;10.074;2024-03-02T09:37:02;15.20;57.50
29431;DHT22;16404;49.902;10.074;2024-03-02T09:39:48;15.20;58.20
29431;DHT22;16404;49.902;10.074;2024-03-02T09:42:32;15.20;57.70
29431;DHT22;16404;49.902;10.074;2024-03-02T09:45:22;15.20;57.80
29431;DHT22;16404;49.902;10.074;2024-03-02T09:48:07;15.30;57.50
29431;DHT22;16404;49.902;10.074;2024-03-02T09:50:51;15.40;57.10
29431;DHT22;16404;49.902;10.074;2024-03-02T09:53:36;15.60;56.90
29431;DHT22;16404;49.902;10.074;2024-03-02T09:56:21;15.50;56.70
29431;DHT22;16404;49.902;10.074;2024-03-02T09:59:06;15.50;56.60
29431;DHT22;16404;49.902;10.074;2024-03-02T10:02:01;15.60;56.90
29431;DHT22;16404;49.902;10.074;2024-03-02T10:04:48;15.50;56.60
29431;DHT22;16404;49.902;10.074;2024-03-02T10:07:33;15.60;56.70
29431;DHT22;16404;49.902;10.074;2024-03-02T10:10:18;15.60;56.40
29431;DHT22;16404;49.902;10.074;2024-03-02T10:13:06;15.70;56.40
29431;DHT22;16404;49.902;10.074;2024-03-02T10:15:51;15.70;56.60
29431;DHT22;16404;49.902;10.074;2024-03-02T10:18:36;15.80;56.10
29431;DHT22;16404;49.902;10.074;2024-03-02T10:21:20;15.90;55.80
29431;DHT22;16404;49.902;10.074;2024-03-02T10:24:08;16.00;55.60
29431;DHT22;16404;49.902;10.074;2024-03-02T10:26:53;16.00;55.30
29431;DHT22;16404;49.902;10.074;2024-03-02T10:29:41;16.00;55.30
29431;DHT22;16404;49.902;10.074;2024-03-02T10:32:26;16.00;55.40
29431;DHT22;16404;49.902;10.074;2024-03-02T10:35:10;16.00;55.30
29431;DHT22;16404;49.902;10.074;2024-03-02T10:37:55;16.00;55.20
29431;DHT22;16404;49.902;10.074;2024-03-02T10:40:39;16.10;55.20
29431;DHT22;16404;49.902;10.074;2024-03-02T10:43:24;16.10;55.30
29431;DHT22;16404;49.902;10.074;2024-03-02T10:46:10;16.10;55.30
29431;DHT22;16404;49.902;10.074;2024-03-02T10:48:57;16.10;55.10
29431;DHT22;16404;49.902;10.074;2024-03-02T10:51:45;16.10;55.20
29431;DHT22;16404;49.902;10.074;2024-03-02T10:54:29;16.10;55.20
29431;DHT22;16404;49.902;10.074;2024-03-02T10:57:21;16.10;55.40
29431;DHT22;16404;49.902;10.074;2024-03-02T11:00:12;16.00;55.00
29431;DHT22;16404;49.902;10.074;2024-03-02T11:03:06;16.00;55.00
29431;DHT22;16404;49.902;10.074;2024-03-02T11:05:53;16.00;55.20
29431;DHT22;16404;49.902;10.074;2024-03-02T11:08:38;16.10;54.80
29431;DHT22;16404;49.902;10.074;2024-03-02T11:11:30;16.20;54.80
29431;DHT22;16404;49.902;10.074;2024-03-02T11:14:17;16.10;54.60
29431;DHT22;16404;49.902;10.074;2024-03-02T11:17:05;16.10;54.60
29431;DHT22;16404;49.902;10.074;2024-03-02T11:19:50;16.00;54.70
29431;DHT22;16404;49.902;10.074;2024-03-02T11:22:36;16.00;54.70
29431;DHT22;16404;49.902;10.074;2024-03-02T11:25:26;16.00;54.60
29431;DHT22;16404;49.902;10.074;2024-03-02T11:28:11;16.00;54.30
29431;DHT22;16404;49.902;10.074;2024-03-02T11:30:55;16.10;54.20
29431;DHT22;16404;49.902;10.074;2024-03-02T11:33:40;16.10;54.30
29431;DHT22;16404;49.902;10.074;2024-03-02T11:36:25;16.10;54.10
29431;DHT22;16404;49.902;10.074;2024-03-02T11:39:10;16.10;53.90
29431;DHT22;16404;49.902;10.074;2024-03-02T11:41:58;16.10;54.00
29431;DHT22;16404;49.902;10.074;2024-03-02T11:44:44;16.10;53.90
29431;DHT22;16404;49.902;10.074;2024-03-02T11:47:36;16.00;53.70
29431;DHT22;16404;49.902;10.074;2024-03-02T11:50:35;16.00;53.50
29431;DHT22;16404;49.902;10.074;2024-03-02T11:53:22;16.10;54.00
29431;DHT22;16404;49.902;10.074;2024-03-02T11:56:06;16.10;53.70
29431;DHT22;16404;49.902;10.074;2024-03-02T11:58:53;16.10;53.50
29431;DHT22;16404;49.902;10.074;2024-03-02T12:01:38;16.10;53.40
29431;DHT22;16404;49.902;10.074;2024-03-02T12:04:23;16.20;53.60
29431;DHT22;16404;49.902;10.074;2024-03-02T12:07:08;16.20;53.30
29431;DHT22;16404;49.902;10.074;2024-03-02T12:09:59;16.20;53.30
29431;DHT22;16404;49.902;10.074;2024-03-02T12:12:45;16.20;53.10
29431;DHT22;16404;49.902;10.074;2024-03-02T12:15:32;16.10;52.80
29431;DHT22;16404;49.902;10.074;2024-03-02T12:18:16;16.10;52.50
29431;DHT22;16404;49.902;10.074;2024-03-02T12:21:01;16.20;52.50
29431;DHT22;16404;49.902;10.074;2024-03-02T12:23:47;16.20;52.40
29431;DHT22;16404;49.902;10.074;2024-03-02T12:26:34;16.20;52.50
29431;DHT22;16404;49.902;10.074;2024-03-02T12:29:20;16.20;52.80
29431;DHT22;16404;49.902;10.074;2024-03-02T12:32:05;16.20;52.70
29431;DHT22;16404;49.902;10.074;2024-03-02T12:34:50;16.20;52.60
29431;DHT22;16404;49.902;10.074;2024-03-02T12:37:45;16.20;52.50
29431;DHT22;16404;49.902;10.074;2024-03-02T12:40:30;16.30;52.20
29431;DHT22;16404;49.902;10.074;2024-03-02T12:43:16;16.40;52.00
29431;DHT22;16404;49.902;10.074;2024-03-02T12:46:01;16.40;51.80
29431;DHT22;16404;49.902;10.074;2024-03-02T12:48:45;16.50;51.50
29431;DHT22;16404;49.902;10.074;2024-03-02T12:51:30;16.50;51.90
29431;DHT22;16404;49.902;10.074;2024-03-02T12:54:14;16.50;51.30
29431;DHT22;16404;49.902;10.074;2024-03-02T12:56:59;16.50;51.30
29431;DHT22;16404;49.902;10.074;2024-03-02T12:59:47;16.50;50.90
29431;DHT22;16404;49.902;10.074;2024-03-02T13:02:32;16.60;50.90
29431;DHT22;16404;49.902;10.074;2024-03-02T13:05:16;16.60;51.10
29431;DHT22;16404;49.902;10.074;2024-03-02T13:08:01;16.70;51.60
29431;DHT22;16404;49.902;10.074;2024-03-02T13:10:47;16.70;50.90
29431;DHT22;16404;49.902;10.074;2024-03-02T13:13:32;16.70;50.50
29431;DHT22;16404;49.902;10.074;2024-03-02T13:16:17;16.80;50.30
29431;DHT22;16404;49.902;10.074;2024-03-02T13:19:02;16.80;50.40
29431;DHT22;16404;49.902;10.074;2024-03-02T13:21:47;16.90;50.30
29431;DHT22;16404;49.902;10.074;2024-03-02T13:24:31;16.90;50.40
29431;DHT22;16404;49.902;10.074;2024-03-02T13:27:17;17.00;50.40
29431;DHT22;16404;49.902;10.074;2024-03-02T13:30:04;17.10;50.50
29431;DHT22;16404;49.902;10.074;2024-03-02T13:32:52;17.10;50.70
29431;DHT22;16404;49.902;10.074;2024-03-02T13:35:38;17.10;50.90
29431;DHT22;16404;49.902;10.074;2024-03-02T13:38:22;17.00;51.00
29431;DHT22;16404;49.902;10.074;2024-03-02T13:41:07;17.10;51.30
29431;DHT22;16404;49.902;10.074;2024-03-02T13:43:51;17.10;51.10
29431;DHT22;16404;49.902;10.074;2024-03-02T13:46:36;17.10;51.00
29431;DHT22;16404;49.902;10.074;2024-03-02T13:49:21;17.10;50.90
29431;DHT22;16404;49.902;10.074;2024-03-02T13:52:06;17.10;50.70
29431;DHT22;16404;49.902;10.074;2024-03-02T13:55:00;17.10;50.80
29431;DHT22;16404;49.902;10.074;2024-03-02T13:57:46;17.20;50.80
29431;DHT22;16404;49.902;10.074;2024-03-02T14:00:31;17.20;50.80
29431;DHT22;16404;49.902;10.074;2024-03-02T14:03:16;17.20;50.60
29431;DHT22;16404;49.902;10.074;2024-03-02T14:06:00;17.20;50.60
29431;DHT22;16404;49.902;10.074;2024-03-02T14:08:45;17.20;50.40
29431;DHT22;16404;49.902;10.074;2024-03-02T14:11:29;17.30;50.10
29431;DHT22;16404;49.902;10.074;2024-03-02T14:14:14;17.30;49.60
29431;DHT22;16404;49.902;10.074;2024-03-02T14:16:59;17.40;49.80
29431;DHT22;16404;49.902;10.074;2024-03-02T14:19:47;17.40;50.00
29431;DHT22;16404;49.902;10.074;2024-03-02T14:22:32;17.40;50.00
29431;DHT22;16404;49.902;10.074;2024-03-02T14:25:18;17.50;50.00
29431;DHT22;16404;49.902;10.074;2024-03-02T14:28:03;17.50;50.10
29431;DHT22;16404;49.902;10.074;2024-03-02T14:30:47;17.50;50.10
29431;DHT22;16404;49.902;10.074;2024-03-02T14:33:32;17.50;49.90
29431;DHT22;16404;49.902;10.074;2024-03-02T14:36:17;17.50;50.00
29431;DHT22;16404;49.902;10.074;2024-03-02T14:39:01;17.40;49.90
29431;DHT22;16404;49.902;10.074;2024-03-02T14:41:46;17.50;50.00
29431;DHT22;16404;49.902;10.074;2024-03-02T14:44:31;17.50;49.90
29431;DHT22;16404;49.902;10.074;2024-03-02T14:47:16;17.50;49.80
29431;DHT22;16404;49.902;10.074;2024-03-02T14:50:01;17.50;49.80
29431;DHT22;16404;49.902;10.074;2024-03-02T14:52:50;17.50;49.80
29431;DHT22;16404;49.902;10.074;2024-03-02T14:55:35;17.50;49.70
29431;DHT22;16404;49.902;10.074;2024-03-02T14:58:19;17.40;49.80
29431;DHT22;16404;49.902;10.074;2024-03-02T15:01:04;17.40;49.80
29431;DHT22;16404;49.902;10.074;2024-03-02T15:03:53;17.30;49.80
29431;DHT22;16404;49.902;10.074;2024-03-02T15:06:37;17.30;49.90
29431;DHT22;16404;49.902;10.074;2024-03-02T15:09:21;17.30;50.10
29431;DHT22;16404;49.902;10.074;2024-03-02T15:12:07;17.30;50.00
29431;DHT22;16404;49.902;10.074;2024-03-02T15:14:54;17.30;50.20
29431;DHT22;16404;49.902;10.074;2024-03-02T15:17:38;17.40;50.30
29431;DHT22;16404;49.902;10.074;2024-03-02T15:20:23;17.30;50.20
29431;DHT22;16404;49.902;10.074;2024-03-02T15:23:08;17.30;50.10
29431;DHT22;16404;49.902;10.074;2024-03-02T15:25:52;17.20;50.00
29431;DHT22;16404;49.902;10.074;2024-03-02T15:28:37;17.20;50.00
29431;DHT22;16404;49.902;10.074;2024-03-02T15:31:21;17.20;50.20
29431;DHT22;16404;49.902;10.074;2024-03-02T15:34:06;17.20;50.30
29431;DHT22;16404;49.902;10.074;2024-03-02T15:36:52;17.10;50.30
29431;DHT22;16404;49.902;10.074;2024-03-02T15:39:36;17.10;50.00
29431;DHT22;16404;49.902;10.074;2024-03-02T15:42:21;17.10;50.00
29431;DHT22;16404;49.902;10.074;2024-03-02T15:45:08;17.10;50.00
29431;DHT22;16404;49.902;10.074;2024-03-02T15:47:52;17.00;49.90
29431;DHT22;16404;49.902;10.074;2024-03-02T15:50:37;17.00;49.90
29431;DHT22;16404;49.902;10.074;2024-03-02T15:53:22;17.00;50.00
29431;DHT22;16404;49.902;10.074;2024-03-02T15:56:06;17.00;50.20
29431;DHT22;16404;49.902;10.074;2024-03-02T15:58:51;17.00;50.50
29431;DHT22;16404;49.902;10.074;2024-03-02T16:01:35;17.00;50.50
29431;DHT22;16404;49.902;10.074;2024-03-02T16:04:20;17.00;50.60
29431;DHT22;16404;49.902;10.074;2024-03-02T16:07:05;17.00;50.60
29431;DHT22;16404;49.902;10.074;2024-03-02T16:09:49;17.00;50.70
29431;DHT22;16404;49.902;10.074;2024-03-02T16:12:34;17.00;50.80
29431;DHT22;16404;49.902;10.074;2024-03-02T16:15:18;17.00;50.90
29431;DHT22;16404;49.902;10.074;2024-03-02T16:18:03;16.90;51.00
29431;DHT22;16404;49.902;10.074;2024-03-02T16:20:48;16.90;51.00
29431;DHT22;16404;49.902;10.074;2024-03-02T16:23:32;16.80;51.00
29431;DHT22;16404;49.902;10.074;2024-03-02T16:26:17;16.70;50.90
29431;DHT22;16404;49.902;10.074;2024-03-02T16:29:02;16.70;51.10
29431;DHT22;16404;49.902;10.074;2024-03-02T16:31:46;16.70;51.20
29431;DHT22;16404;49.902;10.074;2024-03-02T16:34:31;16.70;51.10
29431;DHT22;16404;49.902;10.074;2024-03-02T16:37:15;16.60;50.90
29431;DHT22;16404;49.902;10.074;2024-03-02T16:40:00;16.60;50.90
29431;DHT22;16404;49.902;10.074;2024-03-02T16:42:45;16.60;50.90
29431;DHT22;16404;49.902;10.074;2024-03-02T16:45:29;16.50;50.90
29431;DHT22;16404;49.902;10.074;2024-03-02T16:48:15;16.50;50.90
29431;DHT22;16404;49.902;10.074;2024-03-02T16:51:00;16.40;51.50
29431;DHT22;16404;49.902;10.074;2024-03-02T16:53:44;16.40;50.90
29431;DHT22;16404;49.902;10.074;2024-03-02T16:56:29;16.40;50.80
29431;DHT22;16404;49.902;10.074;2024-03-02T16:59:15;16.30;50.70
29431;DHT22;16404;49.902;10.074;2024-03-02T17:01:59;16.20;50.70
29431;DHT22;16404;49.902;10.074;2024-03-02T17:04:44;16.10;50.80
29431;DHT22;16404;49.902;10.074;2024-03-02T17:07:29;16.10;50.90
29431;DHT22;16404;49.902;10.074;2024-03-02T17:10:15;16.00;50.90
29431;DHT22;16404;49.902;10.074;2024-03-02T17:12:59;15.90;50.90
29431;DHT22;16404;49.902;10.074;2024-03-02T17:15:44;15.80;51.00